sensor_id;sensor_type;location;lat;lon;timestamp;P1;durP1;ratioP1;P2;durP2;ratioP2
42198;SDS011;27868;45.184;5.786;2023-02-28T00:02:42;10.13;;;6.97;;
42198;SDS011;27868;45.184;5.786;2023-02-28T00:05:28;13.90;;;8.10;;
42198;SDS011;27868;45.184;5.786;2023-02-28T00:08:13;13.43;;;8.27;;
42198;SDS011;27868;45.184;5.786;2023-02-28T00:11:05;12.88;;;8.15;;
42198;SDS011;27868;45.184;5.786;2023-02-28T00:13:52;12.70;;;7.68;;
42198;SDS011;27868;45.184;5.786;2023-02-28T00:16:37;13.57;;;8.25;;
42198;SDS011;27868;45.184;5.786;2023-02-28T00:19:21;13.48;;;8.50;;
42198;SDS011;27868;45.184;5.786;2023-02-28T00:22:06;13.82;;;7.88;;
42198;SDS011;27868;45.184;5.786;2023-02-28T00:30:16;12.00;;;7.57;;
42198;SDS011;27868;45.184;5.786;2023-02-28T00:33:05;12.10;;;7.70;;
42198;SDS011;27868;45.184;5.786;2023-02-28T00:35:50;16.17;;;8.57;;
42198;SDS011;27868;45.184;5.786;2023-02-28T00:38:34;15.65;;;8.30;;
42198;SDS011;27868;45.184;5.786;2023-02-28T00:41:19;15.77;;;8.25;;
42198;SDS011;27868;45.184;5.786;2023-02-28T00:44:04;18.02;;;8.15;;
42198;SDS011;27868;45.184;5.786;2023-02-28T00:46:48;13.80;;;8.55;;
42198;SDS011;27868;45.184;5.786;2023-02-28T00:49:33;13.95;;;8.25;;
42198;SDS011;27868;45.184;5.786;2023-02-28T00:52:17;15.57;;;8.57;;
42198;SDS011;27868;45.184;5.786;2023-02-28T00:55:02;14.80;;;8.65;;
42198;SDS011;27868;45.184;5.786;2023-02-28T00:57:47;11.88;;;8.13;;
42198;SDS011;27868;45.184;5.786;2023-02-28T01:00:31;15.70;;;9.20;;
42198;SDS011;27868;45.184;5.786;2023-02-28T01:03:16;14.25;;;8.77;;
42198;SDS011;27868;45.184;5.786;2023-02-28T01:06:02;13.80;;;7.75;;
42198;SDS011;27868;45.184;5.786;2023-02-28T01:08:47;13.85;;;8.30;;
42198;SDS011;27868;45.184;5.786;2023-02-28T01:11:33;14.15;;;8.30;;
42198;SDS011;27868;45.184;5.786;2023-02-28T01:14:18;14.52;;;7.95;;
42198;SDS011;27868;45.184;5.786;2023-02-28T01:17:02;14.60;;;8.40;;
42198;SDS011;27868;45.184;5.786;2023-02-28T01:19:48;16.33;;;8.15;;
42198;SDS011;27868;45.184;5.786;2023-02-28T01:22:34;16.27;;;8.88;;
42198;SDS011;27868;45.184;5.786;2023-02-28T01:25:18;14.45;;;8.73;;
42198;SDS011;27868;45.184;5.786;2023-02-28T01:28:02;13.65;;;8.35;;
42198;SDS011;27868;45.184;5.786;2023-02-28T01:30:48;13.30;;;8.35;;
42198;SDS011;27868;45.184;5.786;2023-02-28T01:33:34;12.35;;;8.18;;
42198;SDS011;27868;45.184;5.786;2023-02-28T01:36:21;13.73;;;8.40;;
42198;SDS011;27868;45.184;5.786;2023-02-28T01:39:07;12.93;;;8.25;;
42198;SDS011;27868;45.184;5.786;2023-02-28T01:41:51;13.20;;;8.55;;
42198;SDS011;27868;45.184;5.786;2023-02-28T01:47:51;13.77;;;8.35;;
42198;SDS011;27868;45.184;5.786;2023-02-28T01:50:41;13.05;;;7.82;;
42198;SDS011;27868;45.184;5.786;2023-02-28T01:53:34;14.52;;;7.88;;
42198;SDS011;27868;45.184;5.786;2023-02-28T01:56:28;14.85;;;8.70;;
42198;SDS011;27868;45.184;5.786;2023-02-28T01:59:20;13.60;;;7.95;;
42198;SDS011;27868;45.184;5.786;2023-02-28T02:02:10;13.63;;;6.97;;
42198;SDS011;27868;45.184;5.786;2023-02-28T02:04:56;13.05;;;8.07;;
42198;SDS011;27868;45.184;5.786;2023-02-28T02:07:47;15.63;;;8.38;;
42198;SDS011;27868;45.184;5.786;2023-02-28T02:13:34;12.10;;;7.80;;
42198;SDS011;27868;45.184;5.786;2023-02-28T02:20:38;12.55;;;7.75;;
42198;SDS011;27868;45.184;5.786;2023-02-28T02:23:27;13.27;;;7.72;;
42198;SDS011;27868;45.184;5.786;2023-02-28T02:26:28;13.52;;;7.50;;
42198;SDS011;27868;45.184;5.786;2023-02-28T02:37:20;10.65;;;6.78;;
42198;SDS011;27868;45.184;5.786;2023-02-28T02:40:11;13.82;;;7.75;;
42198;SDS011;27868;45.184;5.786;2023-02-28T02:43:22;13.50;;;7.90;;
42198;SDS011;27868;45.184;5.786;2023-02-28T02:46:17;10.75;;;7.35;;
42198;SDS011;27868;45.184;5.786;2023-02-28T02:49:10;10.57;;;7.63;;
42198;SDS011;27868;45.184;5.786;2023-02-28T02:52:20;10.82;;;7.50;;
42198;SDS011;27868;45.184;5.786;2023-02-28T02:55:09;14.98;;;8.02;;
42198;SDS011;27868;45.184;5.786;2023-02-28T02:58:01;11.20;;;7.10;;
42198;SDS011;27868;45.184;5.786;2023-02-28T03:00:49;14.95;;;7.68;;
42198;SDS011;27868;45.184;5.786;2023-02-28T03:03:37;10.48;;;7.45;;
42198;SDS011;27868;45.184;5.786;2023-02-28T03:06:23;12.23;;;7.20;;
42198;SDS011;27868;45.184;5.786;2023-02-28T03:09:08;12.93;;;7.80;;
42198;SDS011;27868;45.184;5.786;2023-02-28T03:11:54;12.98;;;7.43;;
42198;SDS011;27868;45.184;5.786;2023-02-28T03:20:47;12.03;;;7.37;;
42198;SDS011;27868;45.184;5.786;2023-02-28T03:24:47;11.95;;;7.60;;
42198;SDS011;27868;45.184;5.786;2023-02-28T03:27:28;12.10;;;7.40;;
42198;SDS011;27868;45.184;5.786;2023-02-28T03:30:24;15.50;;;7.10;;
42198;SDS011;27868;45.184;5.786;2023-02-28T03:33:18;12.48;;;7.07;;
42198;SDS011;27868;45.184;5.786;2023-02-28T03:36:12;12.55;;;7.78;;
42198;SDS011;27868;45.184;5.786;2023-02-28T03:39:07;15.55;;;7.70;;
42198;SDS011;27868;45.184;5.786;2023-02-28T03:41:57;13.38;;;7.72;;
42198;SDS011;27868;45.184;5.786;2023-02-28T03:50:24;13.63;;;7.68;;
42198;SDS011;27868;45.184;5.786;2023-02-28T03:53:20;11.90;;;7.35;;
42198;SDS011;27868;45.184;5.786;2023-02-28T03:56:16;14.73;;;8.38;;
42198;SDS011;27868;45.184;5.786;2023-02-28T03:59:22;12.88;;;8.00;;
42198;SDS011;27868;45.184;5.786;2023-02-28T04:02:10;15.05;;;7.38;;
42198;SDS011;27868;45.184;5.786;2023-02-28T04:04:55;13.68;;;7.40;;
42198;SDS011;27868;45.184;5.786;2023-02-28T04:07:40;13.52;;;8.43;;
42198;SDS011;27868;45.184;5.786;2023-02-28T04:10:25;17.55;;;8.45;;
42198;SDS011;27868;45.184;5.786;2023-02-28T04:13:09;12.65;;;7.72;;
42198;SDS011;27868;45.184;5.786;2023-02-28T04:15:54;13.70;;;8.00;;
42198;SDS011;27868;45.184;5.786;2023-02-28T04:18:38;14.52;;;7.82;;
42198;SDS011;27868;45.184;5.786;2023-02-28T04:21:24;16.90;;;7.72;;
42198;SDS011;27868;45.184;5.786;2023-02-28T04:24:09;12.43;;;7.30;;
42198;SDS011;27868;45.184;5.786;2023-02-28T04:26:58;12.95;;;6.88;;
42198;SDS011;27868;45.184;5.786;2023-02-28T04:29:43;14.40;;;8.07;;
42198;SDS011;27868;45.184;5.786;2023-02-28T04:32:28;13.68;;;7.57;;
42198;SDS011;27868;45.184;5.786;2023-02-28T04:35:13;13.43;;;7.85;;
42198;SDS011;27868;45.184;5.786;2023-02-28T04:37:57;13.30;;;7.70;;
42198;SDS011;27868;45.184;5.786;2023-02-28T04:40:42;15.30;;;7.40;;
42198;SDS011;27868;45.184;5.786;2023-02-28T04:43:27;14.93;;;8.43;;
42198;SDS011;27868;45.184;5.786;2023-02-28T04:46:12;13.50;;;7.85;;
42198;SDS011;27868;45.184;5.786;2023-02-28T04:48:57;13.27;;;8.38;;
42198;SDS011;27868;45.184;5.786;2023-02-28T04:51:43;13.68;;;8.27;;
42198;SDS011;27868;45.184;5.786;2023-02-28T04:54:27;14.77;;;8.50;;
42198;SDS011;27868;45.184;5.786;2023-02-28T04:57:13;15.93;;;7.80;;
42198;SDS011;27868;45.184;5.786;2023-02-28T04:59:58;12.77;;;7.65;;
42198;SDS011;27868;45.184;5.786;2023-02-28T05:02:42;15.57;;;8.68;;
42198;SDS011;27868;45.184;5.786;2023-02-28T05:05:27;12.13;;;7.93;;
42198;SDS011;27868;45.184;5.786;2023-02-28T05:08:12;14.15;;;7.88;;
42198;SDS011;27868;45.184;5.786;2023-02-28T05:10:57;14.02;;;8.25;;
42198;SDS011;27868;45.184;5.786;2023-02-28T05:13:41;13.80;;;8.63;;
42198;SDS011;27868;45.184;5.786;2023-02-28T05:16:26;11.00;;;7.93;;
42198;SDS011;27868;45.184;5.786;2023-02-28T05:19:10;16.58;;;8.90;;
42198;SDS011;27868;45.184;5.786;2023-02-28T05:21:55;15.63;;;8.68;;
42198;SDS011;27868;45.184;5.786;2023-02-28T05:24:40;14.02;;;8.23;;
42198;SDS011;27868;45.184;5.786;2023-02-28T05:27:26;13.60;;;8.85;;
42198;SDS011;27868;45.184;5.786;2023-02-28T05:30:12;13.93;;;8.65;;
42198;SDS011;27868;45.184;5.786;2023-02-28T05:32:57;12.75;;;8.18;;
42198;SDS011;27868;45.184;5.786;2023-02-28T05:35:42;16.50;;;8.98;;
42198;SDS011;27868;45.184;5.786;2023-02-28T05:38:27;14.40;;;8.75;;
42198;SDS011;27868;45.184;5.786;2023-02-28T05:41:11;14.38;;;8.20;;
42198;SDS011;27868;45.184;5.786;2023-02-28T05:43:57;14.57;;;8.65;;
42198;SDS011;27868;45.184;5.786;2023-02-28T05:46:41;13.68;;;8.00;;
42198;SDS011;27868;45.184;5.786;2023-02-28T05:49:26;15.02;;;8.82;;
42198;SDS011;27868;45.184;5.786;2023-02-28T05:52:10;13.82;;;8.13;;
42198;SDS011;27868;45.184;5.786;2023-02-28T05:54:55;14.93;;;8.20;;
42198;SDS011;27868;45.184;5.786;2023-02-28T05:57:40;16.25;;;8.95;;
42198;SDS011;27868;45.184;5.786;2023-02-28T06:00:24;15.77;;;9.02;;
42198;SDS011;27868;45.184;5.786;2023-02-28T06:03:09;15.82;;;8.55;;
42198;SDS011;27868;45.184;5.786;2023-02-28T06:05:53;14.77;;;8.45;;
42198;SDS011;27868;45.184;5.786;2023-02-28T06:08:38;15.10;;;8.88;;
42198;SDS011;27868;45.184;5.786;2023-02-28T06:11:23;16.17;;;8.98;;
42198;SDS011;27868;45.184;5.786;2023-02-28T06:14:14;15.75;;;9.27;;
42198;SDS011;27868;45.184;5.786;2023-02-28T06:17:00;15.00;;;8.60;;
42198;SDS011;27868;45.184;5.786;2023-02-28T06:19:46;14.48;;;8.75;;
42198;SDS011;27868;45.184;5.786;2023-02-28T06:22:31;17.75;;;9.90;;
42198;SDS011;27868;45.184;5.786;2023-02-28T06:25:16;15.20;;;8.80;;
42198;SDS011;27868;45.184;5.786;2023-02-28T06:28:01;16.40;;;8.65;;
42198;SDS011;27868;45.184;5.786;2023-02-28T06:30:45;17.40;;;9.25;;
42198;SDS011;27868;45.184;5.786;2023-02-28T06:33:30;17.58;;;9.65;;
42198;SDS011;27868;45.184;5.786;2023-02-28T06:36:15;16.52;;;8.68;;
42198;SDS011;27868;45.184;5.786;2023-02-28T06:39:00;15.93;;;9.10;;
42198;SDS011;27868;45.184;5.786;2023-02-28T06:41:45;17.05;;;9.30;;
42198;SDS011;27868;45.184;5.786;2023-02-28T06:44:32;17.10;;;9.85;;
42198;SDS011;27868;45.184;5.786;2023-02-28T06:47:19;16.85;;;9.35;;
42198;SDS011;27868;45.184;5.786;2023-02-28T06:50:03;18.23;;;9.82;;
42198;SDS011;27868;45.184;5.786;2023-02-28T06:52:49;18.70;;;9.43;;
42198;SDS011;27868;45.184;5.786;2023-02-28T06:55:38;21.10;;;10.25;;
42198;SDS011;27868;45.184;5.786;2023-02-28T06:58:23;16.88;;;9.60;;
42198;SDS011;27868;45.184;5.786;2023-02-28T07:01:10;17.27;;;10.48;;
42198;SDS011;27868;45.184;5.786;2023-02-28T07:03:54;18.20;;;10.00;;
42198;SDS011;27868;45.184;5.786;2023-02-28T07:06:39;15.85;;;9.55;;
42198;SDS011;27868;45.184;5.786;2023-02-28T07:09:24;18.42;;;9.75;;
42198;SDS011;27868;45.184;5.786;2023-02-28T07:12:13;19.25;;;9.85;;
42198;SDS011;27868;45.184;5.786;2023-02-28T07:14:58;20.30;;;10.73;;
42198;SDS011;27868;45.184;5.786;2023-02-28T07:17:43;18.92;;;10.23;;
42198;SDS011;27868;45.184;5.786;2023-02-28T07:20:27;20.23;;;9.73;;
42198;SDS011;27868;45.184;5.786;2023-02-28T07:23:12;17.60;;;10.32;;
42198;SDS011;27868;45.184;5.786;2023-02-28T07:25:57;17.70;;;10.40;;
42198;SDS011;27868;45.184;5.786;2023-02-28T07:28:42;20.20;;;10.98;;
42198;SDS011;27868;45.184;5.786;2023-02-28T07:31:28;20.25;;;11.30;;
42198;SDS011;27868;45.184;5.786;2023-02-28T07:34:13;18.33;;;10.63;;
42198;SDS011;27868;45.184;5.786;2023-02-28T07:36:58;17.05;;;10.77;;
42198;SDS011;27868;45.184;5.786;2023-02-28T07:39:43;18.83;;;10.88;;
42198;SDS011;27868;45.184;5.786;2023-02-28T07:42:28;22.05;;;12.05;;
42198;SDS011;27868;45.184;5.786;2023-02-28T07:45:13;20.08;;;11.10;;
42198;SDS011;27868;45.184;5.786;2023-02-28T07:47:57;21.75;;;12.27;;
42198;SDS011;27868;45.184;5.786;2023-02-28T07:50:42;22.05;;;11.63;;
42198;SDS011;27868;45.184;5.786;2023-02-28T07:53:26;23.83;;;13.02;;
42198;SDS011;27868;45.184;5.786;2023-02-28T07:56:11;21.73;;;11.48;;
42198;SDS011;27868;45.184;5.786;2023-02-28T07:58:56;21.75;;;12.27;;
42198;SDS011;27868;45.184;5.786;2023-02-28T08:01:41;22.00;;;11.98;;
42198;SDS011;27868;45.184;5.786;2023-02-28T08:04:31;22.08;;;12.13;;
42198;SDS011;27868;45.184;5.786;2023-02-28T08:07:16;21.10;;;11.48;;
42198;SDS011;27868;45.184;5.786;2023-02-28T08:10:01;22.23;;;12.68;;
42198;SDS011;27868;45.184;5.786;2023-02-28T08:12:46;24.23;;;12.90;;
42198;SDS011;27868;45.184;5.786;2023-02-28T08:15:30;20.70;;;12.18;;
42198;SDS011;27868;45.184;5.786;2023-02-28T08:18:15;26.88;;;12.88;;
42198;SDS011;27868;45.184;5.786;2023-02-28T08:21:05;20.80;;;11.85;;
42198;SDS011;27868;45.184;5.786;2023-02-28T08:23:53;23.00;;;12.40;;
42198;SDS011;27868;45.184;5.786;2023-02-28T08:26:38;22.23;;;12.15;;
42198;SDS011;27868;45.184;5.786;2023-02-28T08:29:22;18.33;;;10.73;;
42198;SDS011;27868;45.184;5.786;2023-02-28T08:32:07;18.88;;;11.23;;
42198;SDS011;27868;45.184;5.786;2023-02-28T08:34:52;17.80;;;10.57;;
42198;SDS011;27868;45.184;5.786;2023-02-28T08:37:36;18.67;;;10.60;;
42198;SDS011;27868;45.184;5.786;2023-02-28T08:40:21;19.33;;;10.77;;
42198;SDS011;27868;45.184;5.786;2023-02-28T08:43:06;17.70;;;10.20;;
42198;SDS011;27868;45.184;5.786;2023-02-28T08:45:51;18.40;;;10.45;;
42198;SDS011;27868;45.184;5.786;2023-02-28T08:48:36;15.90;;;9.95;;
42198;SDS011;27868;45.184;5.786;2023-02-28T08:51:24;17.55;;;10.43;;
42198;SDS011;27868;45.184;5.786;2023-02-28T08:54:12;18.98;;;10.32;;
42198;SDS011;27868;45.184;5.786;2023-02-28T08:56:58;20.48;;;11.25;;
42198;SDS011;27868;45.184;5.786;2023-02-28T08:59:43;21.58;;;10.43;;
42198;SDS011;27868;45.184;5.786;2023-02-28T09:02:27;15.05;;;9.43;;
42198;SDS011;27868;45.184;5.786;2023-02-28T09:05:13;17.92;;;10.60;;
42198;SDS011;27868;45.184;5.786;2023-02-28T09:07:57;17.05;;;9.95;;
42198;SDS011;27868;45.184;5.786;2023-02-28T09:10:42;16.88;;;9.75;;
42198;SDS011;27868;45.184;5.786;2023-02-28T09:13:27;15.82;;;9.60;;
42198;SDS011;27868;45.184;5.786;2023-02-28T09:16:13;17.70;;;9.80;;
42198;SDS011;27868;45.184;5.786;2023-02-28T09:19:00;18.20;;;9.65;;
42198;SDS011;27868;45.184;5.786;2023-02-28T09:21:45;17.98;;;10.02;;
42198;SDS011;27868;45.184;5.786;2023-02-28T09:24:30;18.25;;;10.30;;
42198;SDS011;27868;45.184;5.786;2023-02-28T09:27:15;15.85;;;10.27;;
42198;SDS011;27868;45.184;5.786;2023-02-28T09:30:00;18.45;;;10.82;;
42198;SDS011;27868;45.184;5.786;2023-02-28T09:32:44;14.27;;;9.27;;
42198;SDS011;27868;45.184;5.786;2023-02-28T09:35:35;19.05;;;11.30;;
42198;SDS011;27868;45.184;5.786;2023-02-28T09:38:21;18.63;;;10.93;;
42198;SDS011;27868;45.184;5.786;2023-02-28T09:41:11;17.98;;;10.45;;
42198;SDS011;27868;45.184;5.786;2023-02-28T09:44:02;21.70;;;11.48;;
42198;SDS011;27868;45.184;5.786;2023-02-28T09:46:50;19.02;;;10.95;;
42198;SDS011;27868;45.184;5.786;2023-02-28T09:49:39;20.73;;;11.15;;
42198;SDS011;27868;45.184;5.786;2023-02-28T09:52:28;18.60;;;11.23;;
42198;SDS011;27868;45.184;5.786;2023-02-28T09:58:00;17.45;;;10.68;;
42198;SDS011;27868;45.184;5.786;2023-02-28T10:00:45;18.98;;;11.15;;
42198;SDS011;27868;45.184;5.786;2023-02-28T10:03:43;22.20;;;11.20;;
42198;SDS011;27868;45.184;5.786;2023-02-28T10:06:41;18.23;;;10.88;;
42198;SDS011;27868;45.184;5.786;2023-02-28T10:09:31;21.10;;;11.13;;
42198;SDS011;27868;45.184;5.786;2023-02-28T10:12:17;19.70;;;11.18;;
42198;SDS011;27868;45.184;5.786;2023-02-28T10:15:04;16.42;;;10.50;;
42198;SDS011;27868;45.184;5.786;2023-02-28T10:17:49;16.63;;;10.85;;
42198;SDS011;27868;45.184;5.786;2023-02-28T10:20:39;19.05;;;11.20;;
42198;SDS011;27868;45.184;5.786;2023-02-28T10:26:12;19.30;;;10.77;;
42198;SDS011;27868;45.184;5.786;2023-02-28T10:29:03;16.63;;;10.75;;
42198;SDS011;27868;45.184;5.786;2023-02-28T10:31:47;20.63;;;11.30;;
42198;SDS011;27868;45.184;5.786;2023-02-28T10:34:33;20.60;;;11.05;;
42198;SDS011;27868;45.184;5.786;2023-02-28T10:37:17;19.65;;;11.20;;
42198;SDS011;27868;45.184;5.786;2023-02-28T10:40:25;19.27;;;12.05;;
42198;SDS011;27868;45.184;5.786;2023-02-28T10:45:59;22.48;;;11.90;;
42198;SDS011;27868;45.184;5.786;2023-02-28T10:48:50;21.45;;;11.88;;
42198;SDS011;27868;45.184;5.786;2023-02-28T10:51:46;23.60;;;12.10;;
42198;SDS011;27868;45.184;5.786;2023-02-28T10:54:36;17.50;;;11.05;;
42198;SDS011;27868;45.184;5.786;2023-02-28T10:57:23;18.40;;;11.60;;
42198;SDS011;27868;45.184;5.786;2023-02-28T11:00:20;19.67;;;10.98;;
42198;SDS011;27868;45.184;5.786;2023-02-28T11:03:13;22.73;;;12.35;;
42198;SDS011;27868;45.184;5.786;2023-02-28T11:06:14;20.33;;;11.43;;
42198;SDS011;27868;45.184;5.786;2023-02-28T11:09:06;20.00;;;11.38;;
42198;SDS011;27868;45.184;5.786;2023-02-28T11:12:10;18.17;;;11.10;;
42198;SDS011;27868;45.184;5.786;2023-02-28T11:20:57;15.77;;;10.30;;
42198;SDS011;27868;45.184;5.786;2023-02-28T11:23:44;18.30;;;10.65;;
42198;SDS011;27868;45.184;5.786;2023-02-28T11:26:43;18.05;;;10.82;;
42198;SDS011;27868;45.184;5.786;2023-02-28T11:29:31;17.92;;;10.80;;
42198;SDS011;27868;45.184;5.786;2023-02-28T11:32:19;19.92;;;11.23;;
42198;SDS011;27868;45.184;5.786;2023-02-28T11:37:55;17.90;;;11.27;;
42198;SDS011;27868;45.184;5.786;2023-02-28T11:46:44;20.08;;;11.60;;
42198;SDS011;27868;45.184;5.786;2023-02-28T11:55:52;19.55;;;11.20;;
42198;SDS011;27868;45.184;5.786;2023-02-28T12:01:50;19.10;;;11.18;;
42198;SDS011;27868;45.184;5.786;2023-02-28T12:04:52;20.65;;;12.38;;
42198;SDS011;27868;45.184;5.786;2023-02-28T12:11:09;18.70;;;11.20;;
42198;SDS011;27868;45.184;5.786;2023-02-28T12:17:03;20.42;;;11.63;;
42198;SDS011;27868;45.184;5.786;2023-02-28T12:22:49;21.30;;;11.63;;
42198;SDS011;27868;45.184;5.786;2023-02-28T12:26:04;18.27;;;11.68;;
42198;SDS011;27868;45.184;5.786;2023-02-28T12:32:21;18.27;;;11.52;;
42198;SDS011;27868;45.184;5.786;2023-02-28T12:35:18;18.15;;;10.93;;
42198;SDS011;27868;45.184;5.786;2023-02-28T12:41:04;17.27;;;10.70;;
42198;SDS011;27868;45.184;5.786;2023-02-28T12:43:57;15.85;;;10.25;;
42198;SDS011;27868;45.184;5.786;2023-02-28T12:46:50;19.08;;;10.73;;
42198;SDS011;27868;45.184;5.786;2023-02-28T12:49:39;18.35;;;11.05;;
42198;SDS011;27868;45.184;5.786;2023-02-28T12:55:46;18.02;;;10.77;;
42198;SDS011;27868;45.184;5.786;2023-02-28T12:58:54;18.08;;;10.00;;
42198;SDS011;27868;45.184;5.786;2023-02-28T13:06:02;15.85;;;9.88;;
42198;SDS011;27868;45.184;5.786;2023-02-28T13:11:41;23.63;;;10.98;;
42198;SDS011;27868;45.184;5.786;2023-02-28T13:14:30;19.45;;;11.32;;
42198;SDS011;27868;45.184;5.786;2023-02-28T13:17:21;19.75;;;11.32;;
42198;SDS011;27868;45.184;5.786;2023-02-28T13:20:16;18.35;;;10.57;;
42198;SDS011;27868;45.184;5.786;2023-02-28T13:23:35;17.08;;;11.30;;
42198;SDS011;27868;45.184;5.786;2023-02-28T13:37:48;23.67;;;11.60;;
42198;SDS011;27868;45.184;5.786;2023-02-28T13:40:34;17.50;;;10.80;;
42198;SDS011;27868;45.184;5.786;2023-02-28T13:43:24;18.08;;;10.70;;
42198;SDS011;27868;45.184;5.786;2023-02-28T13:49:33;16.52;;;10.57;;
42198;SDS011;27868;45.184;5.786;2023-02-28T13:52:19;19.60;;;10.40;;
42198;SDS011;27868;45.184;5.786;2023-02-28T13:55:12;20.35;;;10.80;;
42198;SDS011;27868;45.184;5.786;2023-02-28T13:58:16;19.67;;;10.88;;
42198;SDS011;27868;45.184;5.786;2023-02-28T14:01:16;17.92;;;10.73;;
42198;SDS011;27868;45.184;5.786;2023-02-28T14:07:26;18.30;;;11.10;;
42198;SDS011;27868;45.184;5.786;2023-02-28T14:10:37;17.10;;;10.52;;
42198;SDS011;27868;45.184;5.786;2023-02-28T14:13:39;18.45;;;11.13;;
42198;SDS011;27868;45.184;5.786;2023-02-28T14:16:38;17.25;;;9.95;;
42198;SDS011;27868;45.184;5.786;2023-02-28T14:19:26;20.33;;;11.40;;
42198;SDS011;27868;45.184;5.786;2023-02-28T14:29:02;17.15;;;11.38;;
42198;SDS011;27868;45.184;5.786;2023-02-28T14:32:02;20.30;;;11.18;;
42198;SDS011;27868;45.184;5.786;2023-02-28T14:38:29;21.52;;;10.93;;
42198;SDS011;27868;45.184;5.786;2023-02-28T14:41:20;18.75;;;10.38;;
42198;SDS011;27868;45.184;5.786;2023-02-28T14:47:01;18.13;;;10.80;;
42198;SDS011;27868;45.184;5.786;2023-02-28T14:49:51;20.25;;;12.32;;
42198;SDS011;27868;45.184;5.786;2023-02-28T14:52:35;18.75;;;11.00;;
42198;SDS011;27868;45.184;5.786;2023-02-28T14:55:22;16.15;;;10.48;;
42198;SDS011;27868;45.184;5.786;2023-02-28T14:58:29;18.65;;;10.30;;
42198;SDS011;27868;45.184;5.786;2023-02-28T15:01:18;17.75;;;10.57;;
42198;SDS011;27868;45.184;5.786;2023-02-28T15:04:06;19.63;;;10.88;;
42198;SDS011;27868;45.184;5.786;2023-02-28T15:07:10;16.92;;;10.98;;
42198;SDS011;27868;45.184;5.786;2023-02-28T15:12:58;15.85;;;10.10;;
42198;SDS011;27868;45.184;5.786;2023-02-28T15:15:57;18.65;;;10.70;;
42198;SDS011;27868;45.184;5.786;2023-02-28T15:18:49;16.33;;;9.95;;
42198;SDS011;27868;45.184;5.786;2023-02-28T15:21:38;17.65;;;10.82;;
42198;SDS011;27868;45.184;5.786;2023-02-28T15:24:39;15.77;;;10.35;;
42198;SDS011;27868;45.184;5.786;2023-02-28T15:27:31;17.10;;;10.30;;
42198;SDS011;27868;45.184;5.786;2023-02-28T15:30:21;16.95;;;10.48;;
42198;SDS011;27868;45.184;5.786;2023-02-28T15:33:19;22.05;;;10.75;;
42198;SDS011;27868;45.184;5.786;2023-02-28T15:36:12;17.40;;;10.52;;
42198;SDS011;27868;45.184;5.786;2023-02-28T15:38:59;18.45;;;10.90;;
42198;SDS011;27868;45.184;5.786;2023-02-28T15:41:44;16.95;;;10.23;;
42198;SDS011;27868;45.184;5.786;2023-02-28T15:44:30;16.60;;;10.52;;
42198;SDS011;27868;45.184;5.786;2023-02-28T15:47:20;21.35;;;11.23;;
42198;SDS011;27868;45.184;5.786;2023-02-28T15:50:09;18.90;;;10.40;;
42198;SDS011;27868;45.184;5.786;2023-02-28T15:52:56;17.67;;;10.35;;
42198;SDS011;27868;45.184;5.786;2023-02-28T15:55:41;18.38;;;10.45;;
42198;SDS011;27868;45.184;5.786;2023-02-28T15:58:26;19.15;;;11.07;;
42198;SDS011;27868;45.184;5.786;2023-02-28T16:04:03;16.98;;;10.75;;
42198;SDS011;27868;45.184;5.786;2023-02-28T16:09:43;18.45;;;11.13;;
42198;SDS011;27868;45.184;5.786;2023-02-28T16:12:28;18.58;;;11.05;;
42198;SDS011;27868;45.184;5.786;2023-02-28T16:15:22;18.17;;;11.55;;
42198;SDS011;27868;45.184;5.786;2023-02-28T16:18:10;24.17;;;11.77;;
42198;SDS011;27868;45.184;5.786;2023-02-28T16:20:56;18.95;;;11.55;;
42198;SDS011;27868;45.184;5.786;2023-02-28T16:23:40;20.20;;;11.48;;
42198;SDS011;27868;45.184;5.786;2023-02-28T16:26:25;19.15;;;11.90;;
42198;SDS011;27868;45.184;5.786;2023-02-28T16:29:18;18.08;;;11.85;;
42198;SDS011;27868;45.184;5.786;2023-02-28T16:35:00;26.25;;;14.65;;
42198;SDS011;27868;45.184;5.786;2023-02-28T16:37:46;22.52;;;14.25;;
42198;SDS011;27868;45.184;5.786;2023-02-28T16:40:33;23.33;;;13.77;;
42198;SDS011;27868;45.184;5.786;2023-02-28T16:43:20;21.00;;;11.50;;
42198;SDS011;27868;45.184;5.786;2023-02-28T16:46:08;19.90;;;12.45;;
42198;SDS011;27868;45.184;5.786;2023-02-28T16:48:55;20.75;;;12.45;;
42198;SDS011;27868;45.184;5.786;2023-02-28T16:51:40;20.58;;;11.43;;
42198;SDS011;27868;45.184;5.786;2023-02-28T16:54:25;22.48;;;12.52;;
42198;SDS011;27868;45.184;5.786;2023-02-28T16:57:19;22.52;;;12.70;;
42198;SDS011;27868;45.184;5.786;2023-02-28T17:00:07;23.38;;;13.85;;
42198;SDS011;27868;45.184;5.786;2023-02-28T17:02:55;17.85;;;11.00;;
42198;SDS011;27868;45.184;5.786;2023-02-28T17:05:40;17.33;;;10.27;;
42198;SDS011;27868;45.184;5.786;2023-02-28T17:08:25;17.08;;;10.50;;
42198;SDS011;27868;45.184;5.786;2023-02-28T17:11:10;22.30;;;10.45;;
42198;SDS011;27868;45.184;5.786;2023-02-28T17:13:55;18.55;;;10.82;;
42198;SDS011;27868;45.184;5.786;2023-02-28T17:16:40;22.20;;;12.30;;
42198;SDS011;27868;45.184;5.786;2023-02-28T17:19:26;20.95;;;12.10;;
42198;SDS011;27868;45.184;5.786;2023-02-28T17:22:12;19.98;;;11.60;;
42198;SDS011;27868;45.184;5.786;2023-02-28T17:24:56;18.88;;;11.88;;
42198;SDS011;27868;45.184;5.786;2023-02-28T17:27:43;19.23;;;11.73;;
42198;SDS011;27868;45.184;5.786;2023-02-28T17:30:27;18.45;;;10.75;;
42198;SDS011;27868;45.184;5.786;2023-02-28T17:33:12;18.88;;;11.88;;
42198;SDS011;27868;45.184;5.786;2023-02-28T17:35:57;17.08;;;11.18;;
42198;SDS011;27868;45.184;5.786;2023-02-28T17:38:41;19.02;;;12.00;;
42198;SDS011;27868;45.184;5.786;2023-02-28T17:41:26;22.67;;;11.25;;
42198;SDS011;27868;45.184;5.786;2023-02-28T17:44:13;18.63;;;11.23;;
42198;SDS011;27868;45.184;5.786;2023-02-28T17:46:58;20.10;;;10.68;;
42198;SDS011;27868;45.184;5.786;2023-02-28T17:49:43;19.65;;;11.38;;
42198;SDS011;27868;45.184;5.786;2023-02-28T17:52:28;17.40;;;10.57;;
42198;SDS011;27868;45.184;5.786;2023-02-28T17:55:13;17.60;;;11.05;;
42198;SDS011;27868;45.184;5.786;2023-02-28T17:57:58;18.33;;;10.95;;
42198;SDS011;27868;45.184;5.786;2023-02-28T18:00:42;19.65;;;11.52;;
42198;SDS011;27868;45.184;5.786;2023-02-28T18:03:27;20.20;;;11.30;;
42198;SDS011;27868;45.184;5.786;2023-02-28T18:09:12;19.90;;;11.20;;
42198;SDS011;27868;45.184;5.786;2023-02-28T18:14:45;17.85;;;11.02;;
42198;SDS011;27868;45.184;5.786;2023-02-28T18:17:32;19.20;;;11.23;;
42198;SDS011;27868;45.184;5.786;2023-02-28T18:20:17;20.60;;;11.70;;
42198;SDS011;27868;45.184;5.786;2023-02-28T18:23:02;20.85;;;11.88;;
42198;SDS011;27868;45.184;5.786;2023-02-28T18:25:47;18.77;;;11.63;;
42198;SDS011;27868;45.184;5.786;2023-02-28T18:28:32;20.08;;;11.25;;
42198;SDS011;27868;45.184;5.786;2023-02-28T18:31:18;23.73;;;11.75;;
42198;SDS011;27868;45.184;5.786;2023-02-28T18:34:03;23.10;;;12.32;;
42198;SDS011;27868;45.184;5.786;2023-02-28T18:36:48;20.35;;;11.77;;
42198;SDS011;27868;45.184;5.786;2023-02-28T18:39:34;19.80;;;11.68;;
42198;SDS011;27868;45.184;5.786;2023-02-28T18:42:19;18.95;;;11.32;;
42198;SDS011;27868;45.184;5.786;2023-02-28T18:45:04;18.50;;;11.32;;
42198;SDS011;27868;45.184;5.786;2023-02-28T18:47:50;18.83;;;11.20;;
42198;SDS011;27868;45.184;5.786;2023-02-28T18:50:38;32.45;;;15.45;;
42198;SDS011;27868;45.184;5.786;2023-02-28T18:53:22;22.23;;;12.60;;